• Join FlightAware (Why Join?)
  • Login
  • US Flag 
06:52PM EST


 

Airport Tracker/Info


-or-


 

Live Flight TrackerFlight Track Log ✈ HXA2668 ✈ 30-Aug-2014 ✈ ZSFZ / FOC - ZSLG / LYG

Flight Track Log - Related Links

Times and Time Zones

All times are in EDT time to prevent confusion due to time zone crossing. See the HXA2668 flight status page for this flight to view local times or setup timezone preferences in your user account.

Time Position Orientation Groundspeed Altitude Reporting Facility
EDT Latitude Longitude Course Direction KTS MPH feet Rate Location/Type
12:17AM 26.8946 119.5820 356° North  Level Estimated
12:18AM 27.0544 119.5683 356° North  Level Estimated
12:19AM 27.2144 119.5546 356° North  Level Estimated
12:20AM 27.3743 119.5408 356° North  Level Estimated
12:21AM 27.4759 119.5321 356° North  Level Estimated
12:22AM 27.5774 119.5233 356° North  Level Estimated
12:23AM 27.6790 119.5145 356° North  Level Estimated
12:24AM 27.7806 119.5057 356° North  Level Estimated
12:25AM 27.8822 119.4969 356° North  Level Estimated
12:26AM 27.9838 119.4880 356° North  Level Estimated
12:27AM 28.0854 119.4792 356° North  Level Estimated
12:28AM 28.1870 119.4703 356° North  Level Estimated
12:29AM 28.2885 119.4614 356° North  Level Estimated
12:30AM 28.3901 119.4525 356° North  Level Estimated
12:31AM 28.4917 119.4436 356° North  Level Estimated
12:32AM 28.5933 119.4346 356° North  Level Estimated
12:33AM 28.6949 119.4256 356° North  Level Estimated
12:34AM 28.7964 119.4167 356° North  Level Estimated
12:35AM 28.8980 119.4077 356° North  Level Estimated
12:36AM 28.9996 119.3987 356° North  Level Estimated
12:37AM 29.1012 119.3896 356° North  Level Estimated
12:38AM 29.2027 119.3806 356° North  Level Estimated
12:39AM 29.3043 119.3715 356° North  Level Estimated
12:40AM 29.4059 119.3624 356° North  Level Estimated
12:41AM 29.5075 119.3533 356° North  Level Estimated
12:42AM 29.6091 119.3442 356° North  Level Estimated
12:43AM 29.7106 119.3351 356° North  Level Estimated
12:44AM 29.8122 119.3259 356° North  Level Estimated
12:45AM 29.9138 119.3167 356° North  Level Estimated
12:46AM 30.0153 119.3075 356° North  Level Estimated
12:47AM 30.1169 119.2983 356° North  Level Estimated
12:48AM 30.2185 119.2891 356° North  Level Estimated
12:49AM 30.3200 119.2798 356° North  Level Estimated
12:50AM 30.4216 119.2705 355° North  Level Estimated
12:51AM 30.5232 119.2612 355° North  Level Estimated
12:52AM 30.6248 119.2519 355° North  Level Estimated
12:53AM 30.7263 119.2426 355° North  Level Estimated
12:54AM 30.8279 119.2333 355° North  Level Estimated
12:55AM 30.9295 119.2239 355° North  Level Estimated
12:56AM 31.0310 119.2145 355° North  Level Estimated
12:57AM 31.1326 119.2051 355° North  Level Estimated
12:58AM 31.2341 119.1956 355° North  Level Estimated
12:59AM 31.3357 119.1862 355° North  Level Estimated
01:00AM 31.4373 119.1767 355° North  Level Estimated
01:01AM 31.5388 119.1672 355° North  Level Estimated
01:02AM 31.6404 119.1577 355° North  Level Estimated
01:03AM 31.7420 119.1482 355° North  Level Estimated
01:04AM 31.8435 119.1386 355° North  Level Estimated
01:05AM 31.9451 119.1291 355° North  Level Estimated
01:06AM 32.0466 119.1195 355° North  Level Estimated
01:07AM 32.1482 119.1098 355° North  Level Estimated
01:08AM 32.2498 119.1002 355° North  Level Estimated
01:09AM 32.3513 119.0905 355° North  Level Estimated
01:10AM 32.4529 119.0808 355° North  Level Estimated
01:11AM 32.5544 119.0711 355° North  Level Estimated
01:12AM 32.6560 119.0614 355° North  Level Estimated
01:13AM 32.7575 119.0517 355° North  Level Estimated
01:14AM 32.8591 119.0419 355° North  Level Estimated
01:15AM 32.9606 119.0321 355° North  Level Estimated
01:16AM 33.0622 119.0223 355° North  Level Estimated
01:17AM 33.1637 119.0125 355° North  Level Estimated
01:18AM 33.2653 119.0026 355° North  Level Estimated
01:19AM 33.3668 118.9927 355° North  Level Estimated
01:20AM 33.4684 118.9828 355° North  Level Estimated
01:21AM 33.5699 118.9729 355° North  Level Estimated
01:22AM 33.6715 118.9629 355° North  Level Estimated
01:23AM 33.7730 118.9529 355° North  Level Estimated
01:24AM 33.8746 118.9429 355° North  Level Estimated
01:25AM 33.9761 118.9329 355° North  Level Estimated
01:26AM 34.0776 118.9229 355° North  Level Estimated
01:27AM 34.1792 118.9128 355° North  Level Estimated
01:28AM 34.2807 118.9027 355° North  Level Estimated
01:29AM 34.3823 118.8926 355° North  Level Estimated
01:30AM 34.4838 118.8824 355° North  Level Estimated
01:31AM 34.5717 118.8736 355° North  Level Estimated
01:32AM 34.5717 118.8736 North  Level Estimated
01:33AM 34.5717 118.8736 North  Level Estimated
01:34AM 34.5717 118.8736 North  Level Estimated
01:35AM 34.5717 118.8736 North  Level Estimated
01:36AM 34.5717 118.8736 North  Level Estimated
01:37AM 34.5717 118.8736 North  Level Estimated
01:38AM 34.5717 118.8736 North  Level Estimated
01:39AM 34.5717 118.8736 North  Level Estimated
01:40AM 34.5717 118.8736 North  Level Estimated
01:41AM 34.5717 118.8736 North  Level Estimated
01:42AM 34.5717 118.8736 North  Level Estimated
01:43AM 34.5717 118.8736 North  Level Estimated
01:44AM 34.5717 118.8736 North  Level Estimated
01:45AM 34.5717 118.8736 North  Level Estimated
01:46AM 34.5717 118.8736 North  Level Estimated
01:47AM 34.5717 118.8736 North  Level Estimated
01:48AM 34.5717 118.8736 North  Level Estimated
01:49AM 34.5717 118.8736 North  Level Estimated
01:50AM 34.5717 118.8736 North  Level Estimated
01:51AM 34.5717 118.8736 North  Level Estimated
01:52AM 34.5717 118.8736 North  Level Estimated